Time;durP1;ratioP1;P1;durP2;ratioP2;P2;SDS_P1;SDS_P2;PMS_P1;PMS_P2;Temp;Humidity;BMP_temperature;BMP_pressure;BME280_temperature;BME280_humidity;BME280_pressure;Samples;Min_cycle;Max_cycle;Signal;HPM_P1;HPM_P2
2023/06/04 00:02:13;;;;;;;8.30;3.00;;;;;;;;;;5074140;28;20474;-69
2023/06/04 00:04:40;;;;;;;4.83;3.07;;;;;;;;;;5074143;28;20443;-69
2023/06/04 00:07:09;;;;;;;6.70;3.20;;;;;;;;;;5073730;28;20445;-69
2023/06/04 00:09:36;;;;;;;4.23;2.50;;;;;;;;;;5073760;28;20446;-69
2023/06/04 00:12:03;;;;;;;5.27;2.30;;;;;;;;;;5073947;28;20783;-69
2023/06/04 00:14:30;;;;;;;2.57;2.37;;;;;;;;;;5073587;28;20442;-69
2023/06/04 00:16:58;;;;;;;2.60;2.40;;;;;;;;;;5073490;28;20542;-69
2023/06/04 00:19:25;;;;;;;5.40;3.00;;;;;;;;;;5073481;28;20477;-70
2023/06/04 00:21:52;;;;;;;2.60;2.40;;;;;;;;;;5073440;28;20914;-69
2023/06/04 00:24:21;;;;;;;9.60;3.00;;;;;;;;;;5073802;28;20465;-69
2023/06/04 00:26:48;;;;;;;3.83;3.03;;;;;;;;;;5073708;28;20831;-70
2023/06/04 00:29:15;;;;;;;3.20;2.70;;;;;;;;;;5074424;28;20456;-70
2023/06/04 00:31:42;;;;;;;4.23;2.90;;;;;;;;;;5073335;28;20449;-70
2023/06/04 00:34:10;;;;;;;3.50;2.87;;;;;;;;;;5073326;28;20440;-70
2023/06/04 00:36:37;;;;;;;5.43;2.20;;;;;;;;;;5073214;28;20437;-70
2023/06/04 00:39:04;;;;;;;4.23;2.63;;;;;;;;;;5073809;28;20470;-70
2023/06/04 00:41:33;;;;;;;3.37;2.40;;;;;;;;;;5073122;28;20524;-70
2023/06/04 00:44:01;;;;;;;6.47;2.87;;;;;;;;;;5073538;28;20477;-70
2023/06/04 00:46:31;;;;;;;2.80;2.20;;;;;;;;;;5073715;28;20483;-70
2023/06/04 00:48:58;;;;;;;4.63;2.90;;;;;;;;;;5073095;28;20473;-70
2023/06/04 00:51:25;;;;;;;4.53;2.50;;;;;;;;;;5073617;28;20431;-70
2023/06/04 00:53:53;;;;;;;13.43;2.40;;;;;;;;;;5073499;28;20492;-70
2023/06/04 00:56:20;;;;;;;3.10;2.60;;;;;;;;;;5073019;28;20440;-70
2023/06/04 00:58:49;;;;;;;5.63;2.40;;;;;;;;;;5073108;28;20458;-70
2023/06/04 01:01:20;;;;;;;3.20;2.47;;;;;;;;;;5073223;28;20495;-70
2023/06/04 01:03:48;;;;;;;5.20;2.90;;;;;;;;;;5073061;28;21021;-70
2023/06/04 01:06:21;;;;;;;3.70;2.60;;;;;;;;;;5073254;28;20466;-70
2023/06/04 01:08:54;;;;;;;2.53;2.33;;;;;;;;;;5073597;28;20828;-70
2023/06/04 01:11:31;;;;;;;2.87;2.20;;;;;;;;;;5073369;28;20419;-70
2023/06/04 01:14:00;;;;;;;3.40;2.70;;;;;;;;;;5073322;28;20519;-70
2023/06/04 01:16:29;;;;;;;7.10;2.90;;;;;;;;;;5072651;28;20468;-70
2023/06/04 01:18:59;;;;;;;2.70;2.50;;;;;;;;;;5072854;28;20970;-70
2023/06/04 01:21:28;;;;;;;7.53;3.07;;;;;;;;;;5072778;28;20437;-71
2023/06/04 01:23:59;;;;;;;2.87;2.50;;;;;;;;;;5073322;28;20457;-70
2023/06/04 01:26:26;;;;;;;2.97;2.70;;;;;;;;;;5073353;28;20819;-71
2023/06/04 01:28:54;;;;;;;3.60;2.93;;;;;;;;;;5072679;28;20947;-70
2023/06/04 01:31:24;;;;;;;3.00;2.50;;;;;;;;;;5073064;28;20839;-70
2023/06/04 01:33:52;;;;;;;5.87;2.50;;;;;;;;;;5072856;28;20480;-70
2023/06/04 01:36:20;;;;;;;3.03;2.77;;;;;;;;;;5072922;28;20455;-70
2023/06/04 01:38:47;;;;;;;4.37;2.67;;;;;;;;;;5072357;28;20970;-70
2023/06/04 01:41:15;;;;;;;5.00;2.70;;;;;;;;;;5073237;28;20881;-70
2023/06/04 01:43:42;;;;;;;3.63;2.27;;;;;;;;;;5072484;28;20436;-70
2023/06/04 01:46:09;;;;;;;5.87;2.90;;;;;;;;;;5073200;28;20444;-70
2023/06/04 01:48:38;;;;;;;5.13;2.50;;;;;;;;;;5072770;28;20440;-70
2023/06/04 01:51:06;;;;;;;3.93;2.40;;;;;;;;;;5072816;28;20524;-70
2023/06/04 01:53:33;;;;;;;3.40;2.43;;;;;;;;;;5072748;28;20432;-70
2023/06/04 01:56:01;;;;;;;4.00;2.63;;;;;;;;;;5073069;28;20439;-70
2023/06/04 01:58:28;;;;;;;3.87;2.70;;;;;;;;;;5072222;28;20469;-70
2023/06/04 02:00:59;;;;;;;3.90;2.37;;;;;;;;;;5072666;28;20437;-70
2023/06/04 02:03:27;;;;;;;3.17;2.77;;;;;;;;;;5073057;28;20724;-70
2023/06/04 02:05:55;;;;;;;3.00;2.40;;;;;;;;;;5076284;28;20447;-70
2023/06/04 02:08:25;;;;;;;2.73;2.50;;;;;;;;;;5075744;28;20436;-70
2023/06/04 02:10:52;;;;;;;4.30;3.40;;;;;;;;;;5075852;28;20529;-69
2023/06/04 02:13:19;;;;;;;3.50;2.50;;;;;;;;;;5075991;28;20443;-70
2023/06/04 02:15:46;;;;;;;3.63;2.93;;;;;;;;;;5076069;28;20468;-70
2023/06/04 02:18:16;;;;;;;11.77;3.17;;;;;;;;;;5076244;28;20433;-70
2023/06/04 02:20:45;;;;;;;3.53;2.97;;;;;;;;;;5075677;28;20422;-70
2023/06/04 02:23:14;;;;;;;3.77;3.03;;;;;;;;;;5075591;28;20437;-70
2023/06/04 02:25:41;;;;;;;4.07;2.67;;;;;;;;;;5076101;28;20438;-70
2023/06/04 02:28:08;;;;;;;2.80;2.60;;;;;;;;;;5075573;28;20803;-69
2023/06/04 02:30:36;;;;;;;2.63;2.43;;;;;;;;;;5076137;28;20444;-69
2023/06/04 02:33:03;;;;;;;3.03;2.73;;;;;;;;;;5075327;28;20486;-70
2023/06/04 02:35:31;;;;;;;3.70;2.70;;;;;;;;;;5076016;28;20439;-70
2023/06/04 02:37:58;;;;;;;2.97;2.70;;;;;;;;;;5075615;28;20447;-70
2023/06/04 02:40:27;;;;;;;5.40;3.00;;;;;;;;;;5075695;28;20474;-70
2023/06/04 02:42:54;;;;;;;3.10;2.80;;;;;;;;;;5075392;28;20926;-70
2023/06/04 02:45:22;;;;;;;4.00;2.57;;;;;;;;;;5076116;28;20749;-70
2023/06/04 02:47:49;;;;;;;4.03;2.70;;;;;;;;;;5075742;28;20463;-70
2023/06/04 02:50:17;;;;;;;5.37;3.00;;;;;;;;;;5075527;28;20446;-69
2023/06/04 02:52:44;;;;;;;5.37;2.93;;;;;;;;;;5075577;28;20436;-70
2023/06/04 02:55:12;;;;;;;3.20;2.93;;;;;;;;;;5075581;28;20437;-71
2023/06/04 02:57:41;;;;;;;5.67;3.27;;;;;;;;;;5075113;28;20475;-71
2023/06/04 03:00:12;;;;;;;6.70;2.67;;;;;;;;;;5075060;28;20480;-70
2023/06/04 03:02:40;;;;;;;3.57;2.53;;;;;;;;;;5075337;28;20890;-71
2023/06/04 03:05:07;;;;;;;3.33;3.03;;;;;;;;;;5075349;28;20549;-70
2023/06/04 03:07:34;;;;;;;2.97;2.67;;;;;;;;;;5075860;28;20486;-70
2023/06/04 03:10:01;;;;;;;3.30;2.80;;;;;;;;;;5075193;28;20433;-70
2023/06/04 03:12:29;;;;;;;3.30;3.00;;;;;;;;;;5075185;28;20511;-70
2023/06/04 03:14:57;;;;;;;3.40;3.10;;;;;;;;;;5074302;28;20434;-70
2023/06/04 03:17:24;;;;;;;8.80;2.90;;;;;;;;;;5075076;28;20456;-70
2023/06/04 03:19:51;;;;;;;6.50;3.30;;;;;;;;;;5074586;28;20473;-70
2023/06/04 03:22:19;;;;;;;3.30;3.00;;;;;;;;;;5074748;28;20933;-70
2023/06/04 03:24:46;;;;;;;6.53;2.70;;;;;;;;;;5074904;28;20436;-70
2023/06/04 03:27:13;;;;;;;4.83;3.27;;;;;;;;;;5074990;28;20439;-70
2023/06/04 03:29:40;;;;;;;7.27;2.90;;;;;;;;;;5074783;28;20449;-70
2023/06/04 03:32:09;;;;;;;3.10;2.90;;;;;;;;;;5074827;28;20436;-70
2023/06/04 03:34:37;;;;;;;5.67;3.10;;;;;;;;;;5074962;28;20540;-70
2023/06/04 03:37:04;;;;;;;3.33;3.00;;;;;;;;;;5074685;28;20924;-70
2023/06/04 03:39:31;;;;;;;4.63;2.87;;;;;;;;;;5074739;28;20475;-71
2023/06/04 03:41:58;;;;;;;7.33;3.20;;;;;;;;;;5074902;28;20441;-70
2023/06/04 03:44:26;;;;;;;3.90;3.10;;;;;;;;;;5074065;28;20447;-71
2023/06/04 03:46:53;;;;;;;3.70;2.90;;;;;;;;;;5074448;28;20771;-70
2023/06/04 03:49:21;;;;;;;9.03;3.37;;;;;;;;;;5074033;28;20445;-70
2023/06/04 03:51:49;;;;;;;5.07;3.17;;;;;;;;;;5074291;28;20468;-70
2023/06/04 03:54:17;;;;;;;2.50;2.30;;;;;;;;;;5086952;28;20435;-71
2023/06/04 03:56:45;;;;;;;9.23;4.00;;;;;;;;;;5093762;28;20759;-73
2023/06/04 03:59:12;;;;;;;3.20;2.90;;;;;;;;;;5093540;28;20482;-71
2023/06/04 04:01:40;;;;;;;3.77;3.37;;;;;;;;;;5093874;28;20470;-70
2023/06/04 04:04:07;;;;;;;4.90;3.23;;;;;;;;;;5093956;28;20846;-70
2023/06/04 04:06:36;;;;;;;3.30;3.10;;;;;;;;;;5094267;28;20450;-71
2023/06/04 04:09:05;;;;;;;4.13;3.00;;;;;;;;;;5093425;28;20436;-71
2023/06/04 04:11:32;;;;;;;3.63;3.33;;;;;;;;;;5094182;28;20439;-70
2023/06/04 04:14:00;;;;;;;6.90;3.23;;;;;;;;;;5094207;28;20432;-70
2023/06/04 04:16:28;;;;;;;3.63;3.07;;;;;;;;;;5093833;28;21017;-70
2023/06/04 04:18:55;;;;;;;4.83;3.00;;;;;;;;;;5093586;28;20486;-70
2023/06/04 04:21:23;;;;;;;6.87;3.17;;;;;;;;;;5094087;28;20440;-70
2023/06/04 04:23:52;;;;;;;6.70;3.20;;;;;;;;;;5093691;28;20436;-72
2023/06/04 04:26:20;;;;;;;3.20;2.93;;;;;;;;;;5093433;28;20444;-74
2023/06/04 04:28:47;;;;;;;6.50;3.40;;;;;;;;;;5093341;28;20428;-71
2023/06/04 04:31:14;;;;;;;5.40;3.20;;;;;;;;;;5093587;28;20519;-71
2023/06/04 04:33:41;;;;;;;4.07;3.10;;;;;;;;;;5093889;28;20841;-70
2023/06/04 04:36:12;;;;;;;5.03;3.13;;;;;;;;;;5093582;28;20459;-70
2023/06/04 04:38:39;;;;;;;5.70;3.40;;;;;;;;;;5093577;28;20823;-71
2023/06/04 04:41:08;;;;;;;5.40;3.10;;;;;;;;;;5093480;28;20472;-70
2023/06/04 04:43:37;;;;;;;4.40;3.33;;;;;;;;;;5093537;28;20439;-70
2023/06/04 04:46:04;;;;;;;3.93;3.53;;;;;;;;;;5093489;28;20539;-70
2023/06/04 04:48:31;;;;;;;3.43;3.00;;;;;;;;;;5093103;28;20510;-70
2023/06/04 04:50:59;;;;;;;3.47;3.17;;;;;;;;;;5093210;28;20450;-71
2023/06/04 04:53:27;;;;;;;3.63;3.30;;;;;;;;;;5093374;28;20509;-70
2023/06/04 04:55:54;;;;;;;4.20;3.10;;;;;;;;;;5093566;28;20432;-71
2023/06/04 04:58:23;;;;;;;2.97;2.77;;;;;;;;;;5093750;28;20440;-70
2023/06/04 05:00:50;;;;;;;7.63;4.10;;;;;;;;;;5093060;28;20470;-71
2023/06/04 05:03:17;;;;;;;7.43;3.20;;;;;;;;;;5093414;28;20426;-70
2023/06/04 05:05:45;;;;;;;3.80;3.50;;;;;;;;;;5093305;28;20435;-71
2023/06/04 05:08:12;;;;;;;3.30;3.00;;;;;;;;;;5093037;28;20434;-73
2023/06/04 05:10:39;;;;;;;4.87;3.97;;;;;;;;;;5093018;28;20450;-70
2023/06/04 05:13:06;;;;;;;4.07;3.50;;;;;;;;;;5092864;28;20440;-70
2023/06/04 05:15:35;;;;;;;6.90;3.40;;;;;;;;;;5092472;28;20466;-70
2023/06/04 05:18:03;;;;;;;5.33;3.70;;;;;;;;;;5093700;28;20433;-70
2023/06/04 05:20:30;;;;;;;5.27;3.53;;;;;;;;;;5093019;28;20468;-70
2023/06/04 05:22:57;;;;;;;3.80;3.37;;;;;;;;;;5093089;28;20512;-70
2023/06/04 05:25:26;;;;;;;5.27;3.07;;;;;;;;;;5093452;28;20436;-71
2023/06/04 05:27:54;;;;;;;4.03;3.70;;;;;;;;;;5092929;28;20446;-70
2023/06/04 05:30:21;;;;;;;4.70;3.60;;;;;;;;;;5092662;28;20433;-70
2023/06/04 05:32:50;;;;;;;4.17;3.63;;;;;;;;;;5093340;28;20434;-70
2023/06/04 05:35:17;;;;;;;4.13;3.73;;;;;;;;;;5092954;28;20826;-71
2023/06/04 05:37:45;;;;;;;3.80;3.47;;;;;;;;;;5093475;28;20444;-70
2023/06/04 05:40:13;;;;;;;5.27;3.33;;;;;;;;;;5096054;28;20564;-70
2023/06/04 05:42:40;;;;;;;3.70;3.33;;;;;;;;;;5097105;28;20439;-71
2023/06/04 05:45:09;;;;;;;3.90;3.50;;;;;;;;;;5096725;28;20496;-71
2023/06/04 05:47:36;;;;;;;5.00;2.70;;;;;;;;;;5097213;28;20437;-70
2023/06/04 05:50:06;;;;;;;4.03;3.33;;;;;;;;;;5096314;28;20436;-71
2023/06/04 05:52:34;;;;;;;6.53;3.77;;;;;;;;;;5096621;28;20434;-71
2023/06/04 05:55:01;;;;;;;5.13;2.97;;;;;;;;;;5096827;28;20853;-70
2023/06/04 05:57:28;;;;;;;3.07;2.77;;;;;;;;;;5096527;28;20778;-70
2023/06/04 05:59:55;;;;;;;3.20;3.00;;;;;;;;;;5096614;28;20788;-70
2023/06/04 06:02:22;;;;;;;3.57;3.27;;;;;;;;;;5096158;28;20433;-70
2023/06/04 06:04:50;;;;;;;3.50;3.00;;;;;;;;;;5096224;28;20434;-70
2023/06/04 06:07:19;;;;;;;4.40;2.53;;;;;;;;;;5096383;28;20449;-70
2023/06/04 06:09:46;;;;;;;7.17;2.83;;;;;;;;;;5096001;28;20437;-70
2023/06/04 06:12:13;;;;;;;5.03;3.33;;;;;;;;;;5096279;28;20435;-70
2023/06/04 06:14:41;;;;;;;4.80;3.40;;;;;;;;;;5096638;28;20520;-70
2023/06/04 06:17:08;;;;;;;3.70;3.03;;;;;;;;;;5096363;28;20464;-70
2023/06/04 06:19:35;;;;;;;4.30;3.40;;;;;;;;;;5096383;28;20462;-70
2023/06/04 06:22:03;;;;;;;6.83;4.30;;;;;;;;;;5096135;28;20786;-70
2023/06/04 06:24:31;;;;;;;6.07;5.40;;;;;;;;;;5096097;28;20457;-70
2023/06/04 06:26:59;;;;;;;4.50;2.50;;;;;;;;;;5096254;28;20470;-70
2023/06/04 06:29:26;;;;;;;4.37;3.53;;;;;;;;;;5095851;28;20447;-73
2023/06/04 06:31:53;;;;;;;4.40;3.37;;;;;;;;;;5095958;28;20533;-70
2023/06/04 06:34:20;;;;;;;5.03;3.17;;;;;;;;;;5096208;28;20441;-70
2023/06/04 06:36:48;;;;;;;7.53;3.00;;;;;;;;;;5095503;28;20927;-70
2023/06/04 06:39:15;;;;;;;6.03;3.23;;;;;;;;;;5095899;28;20462;-70
2023/06/04 06:41:43;;;;;;;6.17;4.00;;;;;;;;;;5095381;28;20482;-70
2023/06/04 06:44:10;;;;;;;3.20;2.67;;;;;;;;;;5096099;28;20450;-70
2023/06/04 06:46:38;;;;;;;4.27;3.00;;;;;;;;;;5095870;28;20446;-70
2023/06/04 06:49:05;;;;;;;4.50;3.00;;;;;;;;;;5095486;28;20975;-79
2023/06/04 06:51:32;;;;;;;4.43;2.70;;;;;;;;;;5095314;28;20465;-69
2023/06/04 06:53:59;;;;;;;3.13;2.83;;;;;;;;;;5095215;28;20435;-70
2023/06/04 06:56:27;;;;;;;4.93;2.60;;;;;;;;;;5095524;28;20487;-69
2023/06/04 06:58:55;;;;;;;4.73;3.20;;;;;;;;;;5095210;28;20481;-69
2023/06/04 07:01:22;;;;;;;5.93;3.40;;;;;;;;;;5095683;28;20535;-69
2023/06/04 07:03:50;;;;;;;2.70;2.50;;;;;;;;;;5095419;28;20437;-70
2023/06/04 07:06:17;;;;;;;3.60;2.60;;;;;;;;;;5095240;28;20428;-69
2023/06/04 07:08:47;;;;;;;3.73;2.47;;;;;;;;;;5095129;28;20524;-77
2023/06/04 07:11:16;;;;;;;4.20;2.70;;;;;;;;;;5094681;28;21020;-72
2023/06/04 07:13:44;;;;;;;4.33;2.80;;;;;;;;;;5095253;28;20530;-70
2023/06/04 07:16:12;;;;;;;4.37;2.57;;;;;;;;;;5095220;28;20562;-70
2023/06/04 07:18:39;;;;;;;4.07;2.60;;;;;;;;;;5095109;28;20434;-70
2023/06/04 07:21:06;;;;;;;4.53;2.50;;;;;;;;;;5094626;28;20473;-70
2023/06/04 07:23:34;;;;;;;4.27;2.73;;;;;;;;;;5094503;28;20954;-70
2023/06/04 07:26:01;;;;;;;5.10;2.27;;;;;;;;;;5094515;28;20927;-70
2023/06/04 07:28:28;;;;;;;2.73;2.47;;;;;;;;;;5094724;28;20933;-69
2023/06/04 07:30:55;;;;;;;4.53;2.50;;;;;;;;;;5094579;28;20441;-70
2023/06/04 07:33:24;;;;;;;2.93;2.73;;;;;;;;;;5094155;28;20518;-69
2023/06/04 07:35:51;;;;;;;6.00;2.80;;;;;;;;;;5094735;28;20449;-70
2023/06/04 07:38:18;;;;;;;3.00;2.20;;;;;;;;;;5094842;28;20433;-70
2023/06/04 07:40:47;;;;;;;2.87;2.50;;;;;;;;;;5094291;28;20480;-70
2023/06/04 07:43:14;;;;;;;2.43;2.20;;;;;;;;;;5094441;28;20452;-70
2023/06/04 07:45:42;;;;;;;3.80;2.30;;;;;;;;;;5094298;28;20500;-70
2023/06/04 07:48:11;;;;;;;2.90;2.60;;;;;;;;;;5094796;28;20438;-70
2023/06/04 07:50:40;;;;;;;6.50;2.27;;;;;;;;;;5094080;28;20433;-70
2023/06/04 07:53:07;;;;;;;2.50;2.00;;;;;;;;;;5094386;28;20437;-69
2023/06/04 07:55:35;;;;;;;3.20;2.90;;;;;;;;;;5094102;28;20443;-70
2023/06/04 07:58:02;;;;;;;2.43;2.20;;;;;;;;;;5094280;28;20487;-70
2023/06/04 08:00:29;;;;;;;7.10;3.40;;;;;;;;;;5094163;28;20498;-70
2023/06/04 08:02:57;;;;;;;4.13;2.67;;;;;;;;;;5093828;28;20839;-70
2023/06/04 08:05:24;;;;;;;6.17;2.70;;;;;;;;;;5094404;28;20511;-70
2023/06/04 08:07:53;;;;;;;4.47;2.50;;;;;;;;;;5094295;28;20440;-70
2023/06/04 08:10:20;;;;;;;3.77;2.83;;;;;;;;;;5093840;28;20438;-70
2023/06/04 08:12:47;;;;;;;4.73;2.57;;;;;;;;;;5093986;28;20488;-70
2023/06/04 08:15:14;;;;;;;3.50;2.30;;;;;;;;;;5094138;28;20431;-70
2023/06/04 08:17:42;;;;;;;2.70;2.50;;;;;;;;;;5093947;28;20813;-70
2023/06/04 08:20:09;;;;;;;2.60;1.90;;;;;;;;;;5093608;28;20932;-70
2023/06/04 08:22:37;;;;;;;2.90;2.23;;;;;;;;;;5093907;28;20789;-70
2023/06/04 08:25:05;;;;;;;3.30;2.70;;;;;;;;;;5093818;28;20437;-70
2023/06/04 08:27:33;;;;;;;2.00;1.90;;;;;;;;;;5093539;28;20477;-70
2023/06/04 08:30:00;;;;;;;3.57;2.77;;;;;;;;;;5093794;28;20440;-69
2023/06/04 08:32:27;;;;;;;8.40;2.70;;;;;;;;;;5093609;28;20444;-72
2023/06/04 08:34:55;;;;;;;11.10;2.47;;;;;;;;;;5090106;28;20941;-71
2023/06/04 08:37:24;;;;;;;2.30;2.10;;;;;;;;;;5093171;28;20439;-70
2023/06/04 08:39:52;;;;;;;4.30;2.40;;;;;;;;;;5093593;28;20470;-70
2023/06/04 08:42:24;;;;;;;4.57;2.70;;;;;;;;;;5093465;28;20511;-70
2023/06/04 08:44:52;;;;;;;4.00;2.70;;;;;;;;;;5093543;28;20913;-72
2023/06/04 08:47:20;;;;;;;3.30;2.30;;;;;;;;;;5093746;28;20441;-69
2023/06/04 08:49:50;;;;;;;2.33;2.07;;;;;;;;;;5093127;28;20443;-69
2023/06/04 08:52:21;;;;;;;2.30;2.10;;;;;;;;;;5093673;28;20434;-69
2023/06/04 08:54:49;;;;;;;3.97;3.63;;;;;;;;;;5093073;28;20934;-69
2023/06/04 08:57:17;;;;;;;9.40;6.30;;;;;;;;;;5092828;28;20439;-69
2023/06/04 08:59:46;;;;;;;2.20;2.10;;;;;;;;;;5092762;28;20903;-69
2023/06/04 09:02:14;;;;;;;2.17;2.03;;;;;;;;;;5092873;28;20486;-69
2023/06/04 09:04:41;;;;;;;3.33;2.27;;;;;;;;;;5092730;28;20435;-69
2023/06/04 09:07:09;;;;;;;2.63;2.00;;;;;;;;;;5092966;28;20498;-68
2023/06/04 09:09:39;;;;;;;2.43;1.80;;;;;;;;;;5093085;28;20775;-69
2023/06/04 09:12:07;;;;;;;2.57;2.23;;;;;;;;;;5092967;28;20440;-69
2023/06/04 09:14:40;;;;;;;2.00;1.67;;;;;;;;;;5095291;28;20447;-68
2023/06/04 09:17:08;;;;;;;5.17;2.00;;;;;;;;;;5096944;28;20539;-68
2023/06/04 09:19:36;;;;;;;2.60;1.53;;;;;;;;;;5097201;28;20872;-69
2023/06/04 09:22:03;;;;;;;4.97;2.03;;;;;;;;;;5097373;28;20475;-69
2023/06/04 09:24:40;;;;;;;3.30;2.27;;;;;;;;;;5097128;28;20473;-68
2023/06/04 09:27:11;;;;;;;4.90;2.20;;;;;;;;;;5096683;28;20423;-68
2023/06/04 09:29:38;;;;;;;5.23;2.10;;;;;;;;;;5097004;28;20442;-68
2023/06/04 09:32:06;;;;;;;3.10;2.10;;;;;;;;;;5097169;28;20445;-69
2023/06/04 09:34:36;;;;;;;3.97;2.20;;;;;;;;;;5097134;28;20446;-68
2023/06/04 09:37:03;;;;;;;10.50;7.97;;;;;;;;;;5096464;28;20450;-68
2023/06/04 09:39:31;;;;;;;2.57;2.00;;;;;;;;;;5096741;28;20445;-68
2023/06/04 09:42:01;;;;;;;3.47;1.93;;;;;;;;;;5097032;28;20567;-68
2023/06/04 09:44:28;;;;;;;2.63;2.10;;;;;;;;;;5096842;28;20427;-68
2023/06/04 09:46:56;;;;;;;3.73;1.90;;;;;;;;;;5096881;28;20477;-68
2023/06/04 09:49:24;;;;;;;7.07;4.57;;;;;;;;;;5096224;28;20940;-67
2023/06/04 09:51:52;;;;;;;2.63;2.07;;;;;;;;;;5096780;28;20428;-68
2023/06/04 09:54:20;;;;;;;3.43;2.50;;;;;;;;;;5096676;28;20438;-67
2023/06/04 09:56:47;;;;;;;2.40;1.70;;;;;;;;;;5095843;28;20443;-68
2023/06/04 09:59:15;;;;;;;7.53;4.40;;;;;;;;;;5096378;28;20453;-68
2023/06/04 10:01:42;;;;;;;36.00;17.70;;;;;;;;;;5096462;28;20479;-68
2023/06/04 10:04:11;;;;;;;8.27;5.57;;;;;;;;;;5096424;28;20435;-69
2023/06/04 10:06:40;;;;;;;7.40;3.63;;;;;;;;;;5095988;28;20443;-70
2023/06/04 10:09:09;;;;;;;8.30;2.80;;;;;;;;;;5095983;28;20518;-69
2023/06/04 10:11:39;;;;;;;4.33;2.20;;;;;;;;;;5095957;28;20988;-69
2023/06/04 10:14:10;;;;;;;2.17;1.70;;;;;;;;;;5096214;28;20439;-68
2023/06/04 10:16:39;;;;;;;2.40;2.03;;;;;;;;;;5095449;28;20480;-68
2023/06/04 10:19:08;;;;;;;6.33;2.30;;;;;;;;;;5095929;28;20444;-68
2023/06/04 10:21:37;;;;;;;2.53;1.80;;;;;;;;;;5095723;28;21086;-70
2023/06/04 10:24:05;;;;;;;3.70;1.90;;;;;;;;;;5095504;28;20533;-71
2023/06/04 10:26:36;;;;;;;3.00;2.73;;;;;;;;;;5095565;28;20446;-70
2023/06/04 10:29:04;;;;;;;2.20;2.00;;;;;;;;;;5096033;28;20443;-70
2023/06/04 10:31:31;;;;;;;5.63;1.90;;;;;;;;;;5095860;28;20952;-69
2023/06/04 10:33:58;;;;;;;1.60;1.50;;;;;;;;;;5096123;28;20459;-70
2023/06/04 10:36:26;;;;;;;6.90;2.20;;;;;;;;;;5095583;28;20447;-69
2023/06/04 10:38:54;;;;;;;9.13;2.00;;;;;;;;;;5095589;28;20521;-69
2023/06/04 10:41:22;;;;;;;2.23;2.00;;;;;;;;;;5095844;28;20829;-69
2023/06/04 10:43:51;;;;;;;4.93;2.60;;;;;;;;;;5095881;28;20921;-68
2023/06/04 10:46:19;;;;;;;2.40;2.00;;;;;;;;;;5095535;28;20464;-68
2023/06/04 10:48:47;;;;;;;2.10;1.90;;;;;;;;;;5095884;28;20443;-69
2023/06/04 10:51:14;;;;;;;1.70;1.60;;;;;;;;;;5095787;28;20450;-69
2023/06/04 10:53:41;;;;;;;2.57;2.17;;;;;;;;;;5095611;28;20446;-68
2023/06/04 10:56:08;;;;;;;2.37;1.70;;;;;;;;;;5095529;28;20471;-70
2023/06/04 10:58:36;;;;;;;2.00;1.83;;;;;;;;;;5095338;28;20435;-68
2023/06/04 11:01:04;;;;;;;6.13;2.37;;;;;;;;;;5095710;28;20754;-68
2023/06/04 11:03:40;;;;;;;2.07;1.87;;;;;;;;;;5095482;28;20439;-69
2023/06/04 11:06:17;;;;;;;3.77;1.90;;;;;;;;;;5095371;28;20548;-68
2023/06/04 11:08:45;;;;;;;2.57;2.33;;;;;;;;;;5095650;28;20791;-68
2023/06/04 11:11:13;;;;;;;5.30;1.87;;;;;;;;;;5095143;28;20459;-68
2023/06/04 11:13:40;;;;;;;1.67;1.50;;;;;;;;;;5095136;28;20802;-69
2023/06/04 11:16:17;;;;;;;2.07;1.97;;;;;;;;;;5094465;28;20483;-69
2023/06/04 11:18:45;;;;;;;1.63;1.53;;;;;;;;;;5094926;28;20430;-68
2023/06/04 11:21:14;;;;;;;1.90;1.70;;;;;;;;;;5094949;28;20588;-68
2023/06/04 11:23:43;;;;;;;4.17;1.70;;;;;;;;;;5094776;28;20933;-69
2023/06/04 11:26:10;;;;;;;2.40;2.20;;;;;;;;;;5094750;28;20473;-69
2023/06/04 11:28:37;;;;;;;3.37;1.70;;;;;;;;;;5094701;28;20905;-69
2023/06/04 11:31:05;;;;;;;2.60;1.97;;;;;;;;;;5094580;28;20996;-68
2023/06/04 11:33:43;;;;;;;2.00;1.80;;;;;;;;;;5095049;28;20444;-70
2023/06/04 11:36:10;;;;;;;2.43;2.23;;;;;;;;;;5094231;28;20795;-69
2023/06/04 11:38:37;;;;;;;5.90;2.03;;;;;;;;;;5094848;28;20442;-69
2023/06/04 11:41:05;;;;;;;3.23;2.30;;;;;;;;;;5094337;28;20447;-69
2023/06/04 11:43:39;;;;;;;2.20;2.00;;;;;;;;;;5095102;28;20479;-70
2023/06/04 11:46:07;;;;;;;3.80;2.33;;;;;;;;;;5094469;28;20962;-69
2023/06/04 11:48:36;;;;;;;2.17;1.97;;;;;;;;;;5094310;28;20446;-69
2023/06/04 11:51:06;;;;;;;2.20;2.00;;;;;;;;;;5094866;28;20502;-69
2023/06/04 11:53:34;;;;;;;2.80;2.13;;;;;;;;;;5094171;28;20449;-69
2023/06/04 11:56:01;;;;;;;6.53;2.80;;;;;;;;;;5093003;28;20556;-69
2023/06/04 11:58:28;;;;;;;2.77;2.47;;;;;;;;;;5094479;28;21000;-69
2023/06/04 12:00:57;;;;;;;2.90;2.67;;;;;;;;;;5094634;28;20476;-69
2023/06/04 12:03:32;;;;;;;2.73;2.33;;;;;;;;;;5093909;28;20980;-69
2023/06/04 12:06:00;;;;;;;2.30;2.10;;;;;;;;;;5094090;28;20470;-69
2023/06/04 12:08:28;;;;;;;10.90;6.33;;;;;;;;;;5093880;28;20444;-69
2023/06/04 12:10:55;;;;;;;3.33;3.03;;;;;;;;;;5094162;28;20444;-69
2023/06/04 12:13:22;;;;;;;3.10;2.30;;;;;;;;;;5094135;28;20527;-68
2023/06/04 12:15:52;;;;;;;1.93;1.83;;;;;;;;;;5093332;28;20545;-69
2023/06/04 12:18:24;;;;;;;2.00;1.80;;;;;;;;;;5093713;28;20435;-69
2023/06/04 12:20:52;;;;;;;3.17;2.43;;;;;;;;;;5093502;28;20443;-69
2023/06/04 12:23:22;;;;;;;5.30;1.90;;;;;;;;;;5094424;28;20895;-69
2023/06/04 12:25:51;;;;;;;9.00;2.40;;;;;;;;;;5093804;28;20509;-69
2023/06/04 12:28:19;;;;;;;2.10;1.80;;;;;;;;;;5093418;28;20448;-70
2023/06/04 12:30:46;;;;;;;1.90;1.80;;;;;;;;;;5093372;28;20444;-68
2023/06/04 12:33:13;;;;;;;3.07;2.53;;;;;;;;;;5094206;28;20748;-69
2023/06/04 12:35:41;;;;;;;11.57;7.93;;;;;;;;;;5093604;28;20445;-72
2023/06/04 12:38:09;;;;;;;8.23;5.60;;;;;;;;;;5093849;28;20444;-67
2023/06/04 12:40:37;;;;;;;10.60;5.50;;;;;;;;;;5093722;28;20438;-71
2023/06/04 12:43:04;;;;;;;5.10;4.40;;;;;;;;;;5093317;28;20492;-70
2023/06/04 12:45:32;;;;;;;2.97;1.90;;;;;;;;;;5093982;28;20774;-69
2023/06/04 12:47:59;;;;;;;5.30;2.17;;;;;;;;;;5093243;28;20580;-69
2023/06/04 12:50:26;;;;;;;2.93;1.80;;;;;;;;;;5093169;28;20492;-67
2023/06/04 12:52:54;;;;;;;4.37;1.80;;;;;;;;;;5093408;28;20453;-70
2023/06/04 12:55:21;;;;;;;2.13;1.80;;;;;;;;;;5092774;28;20441;-69
2023/06/04 12:57:50;;;;;;;2.50;2.30;;;;;;;;;;5093250;28;20478;-69
2023/06/04 13:00:17;;;;;;;2.40;1.83;;;;;;;;;;5093911;28;20474;-69
2023/06/04 13:02:45;;;;;;;1.93;1.83;;;;;;;;;;5092997;28;20477;-69
2023/06/04 13:05:12;;;;;;;3.00;2.03;;;;;;;;;;5093407;28;20449;-68
2023/06/04 13:07:40;;;;;;;3.40;2.20;;;;;;;;;;5093149;28;20971;-70
2023/06/04 13:10:07;;;;;;;3.03;2.47;;;;;;;;;;5093354;28;20530;-69
2023/06/04 13:12:35;;;;;;;2.53;2.33;;;;;;;;;;5093051;28;20944;-68
2023/06/04 13:15:03;;;;;;;6.67;2.07;;;;;;;;;;5092991;28;20807;-69
2023/06/04 13:17:32;;;;;;;2.73;2.53;;;;;;;;;;5093254;28;20468;-69
2023/06/04 13:19:59;;;;;;;3.20;2.00;;;;;;;;;;5093316;28;20496;-67
2023/06/04 13:22:26;;;;;;;3.87;2.00;;;;;;;;;;5093467;28;20505;-69
2023/06/04 13:24:54;;;;;;;2.77;1.90;;;;;;;;;;5093378;28;20439;-68
2023/06/04 13:27:21;;;;;;;2.43;1.83;;;;;;;;;;5092653;28;20449;-68
2023/06/04 13:29:48;;;;;;;3.90;2.00;;;;;;;;;;5093002;28;20485;-69
2023/06/04 13:32:17;;;;;;;3.40;2.60;;;;;;;;;;5092824;28;20932;-70
2023/06/04 13:34:44;;;;;;;3.60;2.20;;;;;;;;;;5092712;28;20639;-68
2023/06/04 13:37:12;;;;;;;5.03;2.57;;;;;;;;;;5092682;28;20451;-69
2023/06/04 13:39:39;;;;;;;4.77;2.27;;;;;;;;;;5092679;28;20928;-69
2023/06/04 13:42:07;;;;;;;5.83;2.07;;;;;;;;;;5092873;28;20529;-69
2023/06/04 13:44:34;;;;;;;7.50;5.70;;;;;;;;;;5092845;28;20455;-69
2023/06/04 13:47:03;;;;;;;2.17;1.97;;;;;;;;;;5092700;28;20445;-68
2023/06/04 13:49:33;;;;;;;3.10;1.80;;;;;;;;;;5092517;28;20444;-69
2023/06/04 13:52:00;;;;;;;2.33;1.80;;;;;;;;;;5092506;28;20446;-69
2023/06/04 13:54:27;;;;;;;5.23;2.00;;;;;;;;;;5092559;28;20541;-69
2023/06/04 13:56:55;;;;;;;2.33;2.13;;;;;;;;;;5092903;28;20528;-69
2023/06/04 13:59:22;;;;;;;2.67;2.13;;;;;;;;;;5093033;28;20438;-69
2023/06/04 14:01:49;;;;;;;2.23;2.03;;;;;;;;;;5096279;28;20534;-68
2023/06/04 14:04:16;;;;;;;2.40;1.70;;;;;;;;;;5095989;28;20472;-69
2023/06/04 14:06:46;;;;;;;2.57;2.33;;;;;;;;;;5095932;28;20496;-68
2023/06/04 14:09:14;;;;;;;5.80;2.00;;;;;;;;;;5095887;28;20453;-68
2023/06/04 14:11:41;;;;;;;2.20;2.00;;;;;;;;;;5096035;28;20444;-69
2023/06/04 14:14:09;;;;;;;2.50;1.87;;;;;;;;;;5095700;28;20450;-69
2023/06/04 14:16:36;;;;;;;2.80;1.83;;;;;;;;;;5095627;28;20477;-69
2023/06/04 14:19:03;;;;;;;8.93;2.30;;;;;;;;;;5096188;28;20441;-68
2023/06/04 14:21:30;;;;;;;2.90;2.20;;;;;;;;;;5095987;28;20449;-68
2023/06/04 14:23:59;;;;;;;2.50;2.10;;;;;;;;;;5096115;28;20486;-68
2023/06/04 14:26:26;;;;;;;2.30;2.00;;;;;;;;;;5096195;28;20926;-69
2023/06/04 14:28:54;;;;;;;9.77;8.90;;;;;;;;;;5096258;28;20425;-69
2023/06/04 14:31:21;;;;;;;2.90;2.10;;;;;;;;;;5096101;28;20431;-69
2023/06/04 14:33:48;;;;;;;3.27;2.07;;;;;;;;;;5095439;28;20452;-69
2023/06/04 14:36:15;;;;;;;2.40;1.90;;;;;;;;;;5095077;28;20447;-69
2023/06/04 14:38:43;;;;;;;2.43;2.23;;;;;;;;;;5096182;28;20408;-69
2023/06/04 14:41:12;;;;;;;3.20;2.10;;;;;;;;;;5095487;28;20953;-69
2023/06/04 14:43:39;;;;;;;2.60;2.13;;;;;;;;;;5095722;28;20484;-68
2023/06/04 14:46:06;;;;;;;6.33;2.33;;;;;;;;;;5096063;28;20436;-68
2023/06/04 14:48:33;;;;;;;6.83;2.07;;;;;;;;;;5095564;28;20436;-68